sensor_id;sensor_type;location;lat;lon;timestamp;pressure;altitude;pressure_sealevel;temperature;humidity
24234;BME280;12365;43.554;1.388;2023-11-21T00:00:13;100194.81;;;13.50;66.35
24234;BME280;12365;43.554;1.388;2023-11-21T00:02:40;100196.50;;;13.49;66.16
24234;BME280;12365;43.554;1.388;2023-11-21T00:05:10;100194.81;;;13.50;66.30
24234;BME280;12365;43.554;1.388;2023-11-21T00:07:38;100194.84;;;13.51;66.25
24234;BME280;12365;43.554;1.388;2023-11-21T00:10:04;100191.34;;;13.51;66.17
24234;BME280;12365;43.554;1.388;2023-11-21T00:12:36;100191.44;;;13.52;66.22
24234;BME280;12365;43.554;1.388;2023-11-21T00:15:02;100187.06;;;13.53;66.24
24234;BME280;12365;43.554;1.388;2023-11-21T00:17:28;100191.34;;;13.51;66.30
24234;BME280;12365;43.554;1.388;2023-11-21T00:19:53;100192.19;;;13.50;65.93
24234;BME280;12365;43.554;1.388;2023-11-21T00:22:19;100183.47;;;13.51;66.26
24234;BME280;12365;43.554;1.388;2023-11-21T00:24:45;100189.69;;;13.53;66.21
24234;BME280;12365;43.554;1.388;2023-11-21T00:27:10;100189.69;;;13.53;66.23
24234;BME280;12365;43.554;1.388;2023-11-21T00:29:36;100186.22;;;13.54;66.42
24234;BME280;12365;43.554;1.388;2023-11-21T00:32:01;100186.31;;;13.55;66.21
24234;BME280;12365;43.554;1.388;2023-11-21T00:34:27;100185.47;;;13.56;66.18
24234;BME280;12365;43.554;1.388;2023-11-21T00:36:52;100184.56;;;13.56;66.32
24234;BME280;12365;43.554;1.388;2023-11-21T00:39:18;100179.53;;;13.60;66.16
24234;BME280;12365;43.554;1.388;2023-11-21T00:41:43;100180.34;;;13.59;66.20
24234;BME280;12365;43.554;1.388;2023-11-21T00:44:10;100170.81;;;13.61;66.10
24234;BME280;12365;43.554;1.388;2023-11-21T00:46:35;100167.31;;;13.61;66.12
24234;BME280;12365;43.554;1.388;2023-11-21T00:49:01;100169.94;;;13.61;66.08
24234;BME280;12365;43.554;1.388;2023-11-21T00:51:26;100164.69;;;13.61;66.23
24234;BME280;12365;43.554;1.388;2023-11-21T00:53:51;100162.94;;;13.61;66.06
24234;BME280;12365;43.554;1.388;2023-11-21T00:56:18;100162.91;;;13.60;66.07
24234;BME280;12365;43.554;1.388;2023-11-21T00:58:43;100165.53;;;13.60;66.11
24234;BME280;12365;43.554;1.388;2023-11-21T01:01:11;100166.47;;;13.62;66.11
24234;BME280;12365;43.554;1.388;2023-11-21T01:03:37;100164.69;;;13.61;66.22
24234;BME280;12365;43.554;1.388;2023-11-21T01:06:02;100165.56;;;13.61;66.05
24234;BME280;12365;43.554;1.388;2023-11-21T01:08:29;100158.56;;;13.60;66.21
24234;BME280;12365;43.554;1.388;2023-11-21T01:10:55;100151.59;;;13.61;66.15
24234;BME280;12365;43.554;1.388;2023-11-21T01:13:20;100148.97;;;13.61;66.14
24234;BME280;12365;43.554;1.388;2023-11-21T01:15:46;100146.25;;;13.59;66.14
24234;BME280;12365;43.554;1.388;2023-11-21T01:18:11;100152.41;;;13.60;66.07
24234;BME280;12365;43.554;1.388;2023-11-21T01:20:37;100143.59;;;13.58;66.14
24234;BME280;12365;43.554;1.388;2023-11-21T01:23:02;100147.03;;;13.57;66.12
24234;BME280;12365;43.554;1.388;2023-11-21T01:25:28;100139.16;;;13.57;66.10
24234;BME280;12365;43.554;1.388;2023-11-21T01:27:53;100145.25;;;13.56;66.15
24234;BME280;12365;43.554;1.388;2023-11-21T01:30:18;100148.88;;;13.59;66.11
24234;BME280;12365;43.554;1.388;2023-11-21T01:32:44;100136.69;;;13.60;66.03
24234;BME280;12365;43.554;1.388;2023-11-21T01:35:10;100131.50;;;13.61;65.91
24234;BME280;12365;43.554;1.388;2023-11-21T01:37:36;100135.00;;;13.62;65.91
24234;BME280;12365;43.554;1.388;2023-11-21T01:40:02;100137.63;;;13.62;66.00
24234;BME280;12365;43.554;1.388;2023-11-21T01:42:30;100128.88;;;13.61;65.96
24234;BME280;12365;43.554;1.388;2023-11-21T01:44:55;100130.59;;;13.61;65.85
24234;BME280;12365;43.554;1.388;2023-11-21T01:47:21;100124.50;;;13.62;65.78
24234;BME280;12365;43.554;1.388;2023-11-21T01:49:47;100127.97;;;13.61;65.86
24234;BME280;12365;43.554;1.388;2023-11-21T01:52:13;100137.63;;;13.62;65.89
24234;BME280;12365;43.554;1.388;2023-11-21T01:54:40;100121.84;;;13.60;65.85
24234;BME280;12365;43.554;1.388;2023-11-21T01:57:06;100115.75;;;13.61;65.82
24234;BME280;12365;43.554;1.388;2023-11-21T01:59:38;100115.72;;;13.60;66.06
24234;BME280;12365;43.554;1.388;2023-11-21T02:02:07;100104.19;;;13.56;65.85
24234;BME280;12365;43.554;1.388;2023-11-21T02:04:33;100105.84;;;13.54;65.77
24234;BME280;12365;43.554;1.388;2023-11-21T02:07:00;100099.69;;;13.52;65.64
24234;BME280;12365;43.554;1.388;2023-11-21T02:09:27;100103.97;;;13.50;65.72
24234;BME280;12365;43.554;1.388;2023-11-21T02:11:53;100096.91;;;13.49;65.89
24234;BME280;12365;43.554;1.388;2023-11-21T02:14:19;100092.44;;;13.47;65.76
24234;BME280;12365;43.554;1.388;2023-11-21T02:16:48;100094.13;;;13.44;65.87
24234;BME280;12365;43.554;1.388;2023-11-21T02:19:20;100083.56;;;13.43;65.89
24234;BME280;12365;43.554;1.388;2023-11-21T02:21:51;100086.09;;;13.41;65.87
24234;BME280;12365;43.554;1.388;2023-11-21T02:24:21;100081.63;;;13.39;65.88
24234;BME280;12365;43.554;1.388;2023-11-21T02:26:50;100091.31;;;13.40;66.00
24234;BME280;12365;43.554;1.388;2023-11-21T02:29:21;100078.88;;;13.36;66.01
24234;BME280;12365;43.554;1.388;2023-11-21T02:31:54;100072.69;;;13.34;65.88
24234;BME280;12365;43.554;1.388;2023-11-21T02:34:21;100079.66;;;13.33;65.92
24234;BME280;12365;43.554;1.388;2023-11-21T02:36:47;100065.59;;;13.31;65.89
24234;BME280;12365;43.554;1.388;2023-11-21T02:39:16;100063.69;;;13.27;65.96
24234;BME280;12365;43.554;1.388;2023-11-21T02:41:42;100055.72;;;13.26;66.03
24234;BME280;12365;43.554;1.388;2023-11-21T02:44:08;100058.25;;;13.24;66.08
24234;BME280;12365;43.554;1.388;2023-11-21T02:46:35;100054.72;;;13.22;66.16
24234;BME280;12365;43.554;1.388;2023-11-21T02:49:02;100066.00;;;13.21;66.21
24234;BME280;12365;43.554;1.388;2023-11-21T02:51:27;100064.16;;;13.18;66.24
24234;BME280;12365;43.554;1.388;2023-11-21T02:53:53;100057.25;;;13.20;66.32
24234;BME280;12365;43.554;1.388;2023-11-21T02:56:19;100052.78;;;13.18;66.28
24234;BME280;12365;43.554;1.388;2023-11-21T02:58:45;100049.28;;;13.17;66.25
24234;BME280;12365;43.554;1.388;2023-11-21T03:01:10;100039.50;;;13.13;66.35
24234;BME280;12365;43.554;1.388;2023-11-21T03:03:38;100042.06;;;13.12;66.38
24234;BME280;12365;43.554;1.388;2023-11-21T03:06:08;100042.88;;;13.11;66.39
24234;BME280;12365;43.554;1.388;2023-11-21T03:08:34;100035.78;;;13.08;66.40
24234;BME280;12365;43.554;1.388;2023-11-21T03:10:59;100040.06;;;13.06;66.52
24234;BME280;12365;43.554;1.388;2023-11-21T03:13:24;100026.91;;;13.05;66.60
24234;BME280;12365;43.554;1.388;2023-11-21T03:15:50;100031.25;;;13.04;66.53
24234;BME280;12365;43.554;1.388;2023-11-21T03:18:15;100026.78;;;13.01;66.64
24234;BME280;12365;43.554;1.388;2023-11-21T03:20:41;100027.47;;;12.97;66.67
24234;BME280;12365;43.554;1.388;2023-11-21T03:23:06;100021.28;;;12.95;66.69
24234;BME280;12365;43.554;1.388;2023-11-21T03:25:32;100029.13;;;12.95;66.67
24234;BME280;12365;43.554;1.388;2023-11-21T03:27:57;100022.25;;;12.97;66.59
24234;BME280;12365;43.554;1.388;2023-11-21T03:30:23;100022.25;;;12.97;66.70
24234;BME280;12365;43.554;1.388;2023-11-21T03:32:48;100021.41;;;12.98;66.77
24234;BME280;12365;43.554;1.388;2023-11-21T03:35:13;100024.03;;;12.98;66.74
24234;BME280;12365;43.554;1.388;2023-11-21T03:37:39;100028.38;;;12.98;66.79
24234;BME280;12365;43.554;1.388;2023-11-21T03:40:07;100011.00;;;13.00;66.61
24234;BME280;12365;43.554;1.388;2023-11-21T03:42:34;100020.63;;;13.01;66.71
24234;BME280;12365;43.554;1.388;2023-11-21T03:44:59;100018.94;;;13.01;66.71
24234;BME280;12365;43.554;1.388;2023-11-21T03:47:26;100015.34;;;12.99;66.70
24234;BME280;12365;43.554;1.388;2023-11-21T03:49:51;100008.19;;;12.95;66.79
24234;BME280;12365;43.554;1.388;2023-11-21T03:52:17;100013.31;;;12.92;66.80
24234;BME280;12365;43.554;1.388;2023-11-21T03:54:42;100019.22;;;12.88;66.74
24234;BME280;12365;43.554;1.388;2023-11-21T03:57:08;100014.72;;;12.84;66.68
24234;BME280;12365;43.554;1.388;2023-11-21T03:59:34;100014.56;;;12.81;66.86
24234;BME280;12365;43.554;1.388;2023-11-21T04:02:00;100011.81;;;12.78;66.83
24234;BME280;12365;43.554;1.388;2023-11-21T04:04:25;100012.66;;;12.77;66.97
24234;BME280;12365;43.554;1.388;2023-11-21T04:06:50;100011.75;;;12.76;66.99
24234;BME280;12365;43.554;1.388;2023-11-21T04:09:17;100007.22;;;12.72;66.85
24234;BME280;12365;43.554;1.388;2023-11-21T04:11:42;100008.81;;;12.69;67.06
24234;BME280;12365;43.554;1.388;2023-11-21T04:14:10;100012.19;;;12.66;66.96
24234;BME280;12365;43.554;1.388;2023-11-21T04:16:36;100003.25;;;12.61;67.00
24234;BME280;12365;43.554;1.388;2023-11-21T04:19:01;99994.34;;;12.57;67.01
24234;BME280;12365;43.554;1.388;2023-11-21T04:21:26;100010.06;;;12.57;67.07
24234;BME280;12365;43.554;1.388;2023-11-21T04:23:52;100008.28;;;12.56;66.96
24234;BME280;12365;43.554;1.388;2023-11-21T04:26:17;100002.94;;;12.53;66.96
24234;BME280;12365;43.554;1.388;2023-11-21T04:28:43;99999.34;;;12.51;67.04
24234;BME280;12365;43.554;1.388;2023-11-21T04:31:08;99993.22;;;12.51;67.05
24234;BME280;12365;43.554;1.388;2023-11-21T04:33:34;99983.50;;;12.48;66.89
24234;BME280;12365;43.554;1.388;2023-11-21T04:35:59;99988.75;;;12.48;67.09
24234;BME280;12365;43.554;1.388;2023-11-21T04:38:24;99990.53;;;12.49;67.06
24234;BME280;12365;43.554;1.388;2023-11-21T04:40:50;99988.78;;;12.50;66.95
24234;BME280;12365;43.554;1.388;2023-11-21T04:43:15;99988.75;;;12.48;66.96
24234;BME280;12365;43.554;1.388;2023-11-21T04:45:40;99985.16;;;12.46;67.11
24234;BME280;12365;43.554;1.388;2023-11-21T04:48:07;99979.81;;;12.43;67.01
24234;BME280;12365;43.554;1.388;2023-11-21T04:50:33;99984.13;;;12.43;67.09
24234;BME280;12365;43.554;1.388;2023-11-21T04:52:59;99986.81;;;12.44;66.92
24234;BME280;12365;43.554;1.388;2023-11-21T04:55:24;99985.28;;;12.49;67.02
24234;BME280;12365;43.554;1.388;2023-11-21T04:57:53;99976.69;;;12.52;66.92
24234;BME280;12365;43.554;1.388;2023-11-21T05:00:18;99983.75;;;12.54;67.02
24234;BME280;12365;43.554;1.388;2023-11-21T05:02:45;99983.88;;;12.57;67.09
24234;BME280;12365;43.554;1.388;2023-11-21T05:05:10;99980.47;;;12.58;67.02
24234;BME280;12365;43.554;1.388;2023-11-21T05:07:36;99978.78;;;12.61;66.99
24234;BME280;12365;43.554;1.388;2023-11-21T05:10:01;99976.31;;;12.64;66.93
24234;BME280;12365;43.554;1.388;2023-11-21T05:12:31;99974.59;;;12.64;67.03
24234;BME280;12365;43.554;1.388;2023-11-21T05:15:01;99978.16;;;12.66;66.96
24234;BME280;12365;43.554;1.388;2023-11-21T05:17:28;99971.25;;;12.68;66.97
24234;BME280;12365;43.554;1.388;2023-11-21T05:19:53;99968.78;;;12.71;67.01
24234;BME280;12365;43.554;1.388;2023-11-21T05:22:18;99975.03;;;12.75;66.94
24234;BME280;12365;43.554;1.388;2023-11-21T05:24:45;99974.19;;;12.76;66.95
24234;BME280;12365;43.554;1.388;2023-11-21T05:27:10;99974.34;;;12.79;66.96
24234;BME280;12365;43.554;1.388;2023-11-21T05:29:35;99975.25;;;12.79;66.94
24234;BME280;12365;43.554;1.388;2023-11-21T05:32:02;99969.22;;;12.82;66.95
24234;BME280;12365;43.554;1.388;2023-11-21T05:34:28;99970.19;;;12.84;66.82
24234;BME280;12365;43.554;1.388;2023-11-21T05:36:53;99967.69;;;12.87;66.87
24234;BME280;12365;43.554;1.388;2023-11-21T05:39:18;99966.72;;;12.85;66.99
24234;BME280;12365;43.554;1.388;2023-11-21T05:41:44;99965.00;;;12.86;66.75
24234;BME280;12365;43.554;1.388;2023-11-21T05:44:10;99969.47;;;12.88;66.83
24234;BME280;12365;43.554;1.388;2023-11-21T05:46:37;99964.22;;;12.88;66.82
24234;BME280;12365;43.554;1.388;2023-11-21T05:49:02;99970.41;;;12.89;66.78
24234;BME280;12365;43.554;1.388;2023-11-21T05:51:28;99971.28;;;12.89;66.83
24234;BME280;12365;43.554;1.388;2023-11-21T05:53:53;99969.63;;;12.91;66.85
24234;BME280;12365;43.554;1.388;2023-11-21T05:56:19;99967.81;;;12.90;66.86
24234;BME280;12365;43.554;1.388;2023-11-21T05:58:44;99969.63;;;12.91;66.88
24234;BME280;12365;43.554;1.388;2023-11-21T06:01:09;99969.75;;;12.94;66.75
24234;BME280;12365;43.554;1.388;2023-11-21T06:03:38;99973.19;;;12.93;66.74
24234;BME280;12365;43.554;1.388;2023-11-21T06:06:03;99969.75;;;12.94;66.79
24234;BME280;12365;43.554;1.388;2023-11-21T06:08:29;99967.94;;;12.93;66.77
24234;BME280;12365;43.554;1.388;2023-11-21T06:10:55;99959.28;;;12.94;66.90
24234;BME280;12365;43.554;1.388;2023-11-21T06:13:20;99971.53;;;12.95;66.86
24234;BME280;12365;43.554;1.388;2023-11-21T06:15:49;99961.00;;;12.94;66.95
24234;BME280;12365;43.554;1.388;2023-11-21T06:18:15;99965.47;;;12.96;66.94
24234;BME280;12365;43.554;1.388;2023-11-21T06:20:41;99964.56;;;12.96;66.85
24234;BME280;12365;43.554;1.388;2023-11-21T06:23:06;99970.75;;;12.98;66.84
24234;BME280;12365;43.554;1.388;2023-11-21T06:25:32;99972.56;;;12.99;66.99
24234;BME280;12365;43.554;1.388;2023-11-21T06:28:01;99970.84;;;12.99;66.88
24234;BME280;12365;43.554;1.388;2023-11-21T06:30:26;99960.41;;;13.01;66.93
24234;BME280;12365;43.554;1.388;2023-11-21T06:32:54;99961.34;;;13.03;66.98
24234;BME280;12365;43.554;1.388;2023-11-21T06:35:20;99967.47;;;13.04;67.01
24234;BME280;12365;43.554;1.388;2023-11-21T06:37:46;99962.41;;;13.07;67.05
24234;BME280;12365;43.554;1.388;2023-11-21T06:40:15;99957.97;;;13.06;66.95
24234;BME280;12365;43.554;1.388;2023-11-21T06:42:40;99969.41;;;13.08;67.01
24234;BME280;12365;43.554;1.388;2023-11-21T06:45:07;99966.78;;;13.08;66.93
24234;BME280;12365;43.554;1.388;2023-11-21T06:47:32;99972.03;;;13.08;66.95
24234;BME280;12365;43.554;1.388;2023-11-21T06:49:58;99970.38;;;13.10;66.97
24234;BME280;12365;43.554;1.388;2023-11-21T06:52:24;99975.66;;;13.11;67.09
24234;BME280;12365;43.554;1.388;2023-11-21T06:54:49;99969.53;;;13.11;67.06
24234;BME280;12365;43.554;1.388;2023-11-21T06:57:15;99977.47;;;13.12;67.27
24234;BME280;12365;43.554;1.388;2023-11-21T06:59:40;99969.59;;;13.12;67.13
24234;BME280;12365;43.554;1.388;2023-11-21T07:02:06;99974.84;;;13.12;67.15
24234;BME280;12365;43.554;1.388;2023-11-21T07:04:33;99968.72;;;13.12;66.92
24234;BME280;12365;43.554;1.388;2023-11-21T07:06:58;99971.34;;;13.12;67.10
24234;BME280;12365;43.554;1.388;2023-11-21T07:09:23;99970.50;;;13.13;67.14
24234;BME280;12365;43.554;1.388;2023-11-21T07:11:53;99972.22;;;13.12;67.34
24234;BME280;12365;43.554;1.388;2023-11-21T07:14:19;99968.72;;;13.12;67.12
24234;BME280;12365;43.554;1.388;2023-11-21T07:16:45;99966.91;;;13.11;67.13
24234;BME280;12365;43.554;1.388;2023-11-21T07:19:11;99974.84;;;13.12;67.32
24234;BME280;12365;43.554;1.388;2023-11-21T07:21:38;99970.50;;;13.13;67.43
24234;BME280;12365;43.554;1.388;2023-11-21T07:24:05;99980.13;;;13.14;67.36
24234;BME280;12365;43.554;1.388;2023-11-21T07:26:34;99989.78;;;13.15;67.41
24234;BME280;12365;43.554;1.388;2023-11-21T07:29:00;99985.44;;;13.15;67.31
24234;BME280;12365;43.554;1.388;2023-11-21T07:31:26;99990.75;;;13.17;67.31
24234;BME280;12365;43.554;1.388;2023-11-21T07:33:52;99998.63;;;13.17;67.51
24234;BME280;12365;43.554;1.388;2023-11-21T07:36:17;100001.28;;;13.18;67.49
24234;BME280;12365;43.554;1.388;2023-11-21T07:38:46;100003.09;;;13.19;67.34
24234;BME280;12365;43.554;1.388;2023-11-21T07:41:12;100011.88;;;13.21;67.42
24234;BME280;12365;43.554;1.388;2023-11-21T07:43:41;100015.41;;;13.22;67.58
24234;BME280;12365;43.554;1.388;2023-11-21T07:46:06;100019.81;;;13.23;67.43
24234;BME280;12365;43.554;1.388;2023-11-21T07:48:33;100012.78;;;13.22;67.50
24234;BME280;12365;43.554;1.388;2023-11-21T07:51:00;100012.03;;;13.25;67.51
24234;BME280;12365;43.554;1.388;2023-11-21T07:53:26;100014.66;;;13.25;67.62
24234;BME280;12365;43.554;1.388;2023-11-21T07:55:54;100018.97;;;13.24;67.56
24234;BME280;12365;43.554;1.388;2023-11-21T07:58:19;100021.59;;;13.24;67.69
24234;BME280;12365;43.554;1.388;2023-11-21T08:00:44;100018.16;;;13.25;67.79
24234;BME280;12365;43.554;1.388;2023-11-21T08:03:10;100025.16;;;13.26;67.69
24234;BME280;12365;43.554;1.388;2023-11-21T08:05:36;100023.47;;;13.27;67.64
24234;BME280;12365;43.554;1.388;2023-11-21T08:08:02;100021.59;;;13.24;67.78
24234;BME280;12365;43.554;1.388;2023-11-21T08:10:27;100027.00;;;13.27;67.68
24234;BME280;12365;43.554;1.388;2023-11-21T08:12:52;100035.00;;;13.30;67.76
24234;BME280;12365;43.554;1.388;2023-11-21T08:15:19;100040.22;;;13.30;67.82
24234;BME280;12365;43.554;1.388;2023-11-21T08:17:44;100039.47;;;13.33;67.93
24234;BME280;12365;43.554;1.388;2023-11-21T08:20:10;100043.09;;;13.36;67.85
24234;BME280;12365;43.554;1.388;2023-11-21T08:22:36;100044.91;;;13.37;67.90
24234;BME280;12365;43.554;1.388;2023-11-21T08:25:01;100041.44;;;13.38;67.87
24234;BME280;12365;43.554;1.388;2023-11-21T08:27:29;100040.63;;;13.39;67.99
24234;BME280;12365;43.554;1.388;2023-11-21T08:29:54;100039.97;;;13.45;68.03
24234;BME280;12365;43.554;1.388;2023-11-21T08:32:21;100042.81;;;13.51;68.02
24234;BME280;12365;43.554;1.388;2023-11-21T08:34:47;100046.59;;;13.58;68.19
24234;BME280;12365;43.554;1.388;2023-11-21T08:37:16;100038.84;;;13.61;67.88
24234;BME280;12365;43.554;1.388;2023-11-21T08:39:41;100043.31;;;13.63;67.95
24234;BME280;12365;43.554;1.388;2023-11-21T08:42:07;100036.53;;;13.69;68.17
24234;BME280;12365;43.554;1.388;2023-11-21T08:44:33;100045.56;;;13.77;68.00
24234;BME280;12365;43.554;1.388;2023-11-21T08:46:58;100039.56;;;13.79;67.98
24234;BME280;12365;43.554;1.388;2023-11-21T08:49:24;100041.38;;;13.80;67.99
24234;BME280;12365;43.554;1.388;2023-11-21T08:51:51;100036.25;;;13.83;68.04
24234;BME280;12365;43.554;1.388;2023-11-21T08:54:16;100042.63;;;13.90;67.99
24234;BME280;12365;43.554;1.388;2023-11-21T08:56:43;100041.97;;;13.96;68.08
24234;BME280;12365;43.554;1.388;2023-11-21T08:59:08;100043.72;;;13.97;68.09
24234;BME280;12365;43.554;1.388;2023-11-21T09:01:34;100038.47;;;13.97;68.14
24234;BME280;12365;43.554;1.388;2023-11-21T09:04:00;100033.25;;;13.97;68.12
24234;BME280;12365;43.554;1.388;2023-11-21T09:06:25;100042.84;;;13.96;68.15
24234;BME280;12365;43.554;1.388;2023-11-21T09:08:50;100048.03;;;13.95;68.19
24234;BME280;12365;43.554;1.388;2023-11-21T09:11:17;100044.50;;;13.94;68.17
24234;BME280;12365;43.554;1.388;2023-11-21T09:13:42;100050.53;;;13.92;68.20
24234;BME280;12365;43.554;1.388;2023-11-21T09:16:08;100049.66;;;13.91;68.21
24234;BME280;12365;43.554;1.388;2023-11-21T09:18:33;100046.94;;;13.90;68.16
24234;BME280;12365;43.554;1.388;2023-11-21T09:20:59;100047.03;;;13.91;68.25
24234;BME280;12365;43.554;1.388;2023-11-21T09:23:24;100038.25;;;13.91;68.24
24234;BME280;12365;43.554;1.388;2023-11-21T09:25:50;100045.28;;;13.92;68.23
24234;BME280;12365;43.554;1.388;2023-11-21T09:28:17;100040.03;;;13.92;68.16
24234;BME280;12365;43.554;1.388;2023-11-21T09:30:43;100044.47;;;13.93;68.16
24234;BME280;12365;43.554;1.388;2023-11-21T09:33:08;100046.31;;;13.95;68.56
24234;BME280;12365;43.554;1.388;2023-11-21T09:35:37;100048.09;;;13.96;68.46
24234;BME280;12365;43.554;1.388;2023-11-21T09:38:03;100039.38;;;13.97;68.46
24234;BME280;12365;43.554;1.388;2023-11-21T09:40:31;100051.72;;;14.00;68.45
24234;BME280;12365;43.554;1.388;2023-11-21T09:42:57;100049.09;;;14.00;68.49
24234;BME280;12365;43.554;1.388;2023-11-21T09:45:27;100057.16;;;14.04;68.53
24234;BME280;12365;43.554;1.388;2023-11-21T09:47:55;100059.00;;;14.07;68.40
24234;BME280;12365;43.554;1.388;2023-11-21T09:50:22;100054.59;;;14.06;68.67
24234;BME280;12365;43.554;1.388;2023-11-21T09:55:26;100060.91;;;14.11;68.43
24234;BME280;12365;43.554;1.388;2023-11-21T09:57:56;100058.50;;;14.17;68.55
24234;BME280;12365;43.554;1.388;2023-11-21T10:00:22;100056.94;;;14.22;68.46
24234;BME280;12365;43.554;1.388;2023-11-21T10:02:52;100059.81;;;14.28;68.48
24234;BME280;12365;43.554;1.388;2023-11-21T10:05:18;100058.00;;;14.27;68.42
24234;BME280;12365;43.554;1.388;2023-11-21T10:07:49;100058.84;;;14.26;68.44
24234;BME280;12365;43.554;1.388;2023-11-21T10:10:18;100061.47;;;14.26;68.52
24234;BME280;12365;43.554;1.388;2023-11-21T10:12:49;100065.88;;;14.27;68.50
24234;BME280;12365;43.554;1.388;2023-11-21T10:15:14;100065.88;;;14.27;68.58
24234;BME280;12365;43.554;1.388;2023-11-21T10:17:44;100064.94;;;14.25;68.58
24234;BME280;12365;43.554;1.388;2023-11-21T10:20:11;100062.44;;;14.28;68.59
24234;BME280;12365;43.554;1.388;2023-11-21T10:22:42;100059.81;;;14.28;68.68
24234;BME280;12365;43.554;1.388;2023-11-21T10:25:08;100057.06;;;14.25;68.55
24234;BME280;12365;43.554;1.388;2023-11-21T10:27:35;100062.44;;;14.28;68.61
24234;BME280;12365;43.554;1.388;2023-11-21T10:30:03;100060.00;;;14.33;68.68
24234;BME280;12365;43.554;1.388;2023-11-21T10:32:29;100056.63;;;14.37;68.56
24234;BME280;12365;43.554;1.388;2023-11-21T10:34:58;100057.75;;;14.44;68.77
24234;BME280;12365;43.554;1.388;2023-11-21T10:37:25;100062.41;;;14.51;68.59
24234;BME280;12365;43.554;1.388;2023-11-21T10:40:00;100059.03;;;14.54;68.62
24234;BME280;12365;43.554;1.388;2023-11-21T10:42:25;100057.31;;;14.56;68.51
24234;BME280;12365;43.554;1.388;2023-11-21T10:44:52;100052.06;;;14.56;68.50
24234;BME280;12365;43.554;1.388;2023-11-21T10:47:19;100052.22;;;14.59;68.65
24234;BME280;12365;43.554;1.388;2023-11-21T10:49:45;100050.66;;;14.64;68.55
24234;BME280;12365;43.554;1.388;2023-11-21T10:52:13;100049.84;;;14.66;68.41
24234;BME280;12365;43.554;1.388;2023-11-21T10:54:43;100057.66;;;14.65;68.36
24234;BME280;12365;43.554;1.388;2023-11-21T10:57:10;100052.31;;;14.62;68.48
24234;BME280;12365;43.554;1.388;2023-11-21T10:59:36;100046.19;;;14.61;68.42
24234;BME280;12365;43.554;1.388;2023-11-21T11:02:16;100055.81;;;14.62;68.44
24234;BME280;12365;43.554;1.388;2023-11-21T11:04:47;100048.06;;;14.65;68.45
24234;BME280;12365;43.554;1.388;2023-11-21T11:07:14;100046.28;;;14.64;68.43
24234;BME280;12365;43.554;1.388;2023-11-21T11:09:41;100053.41;;;14.68;68.48
24234;BME280;12365;43.554;1.388;2023-11-21T11:12:08;100046.47;;;14.70;68.45
24234;BME280;12365;43.554;1.388;2023-11-21T11:14:35;100043.94;;;14.72;68.30
24234;BME280;12365;43.554;1.388;2023-11-21T11:17:00;100042.19;;;14.72;68.44
24234;BME280;12365;43.554;1.388;2023-11-21T11:19:27;100035.25;;;14.74;68.23
24234;BME280;12365;43.554;1.388;2023-11-21T11:22:29;100038.09;;;14.81;68.22
24234;BME280;12365;43.554;1.388;2023-11-21T11:27:57;100044.34;;;14.84;68.18
24234;BME280;12365;43.554;1.388;2023-11-21T11:30:39;100042.56;;;14.83;68.16
24234;BME280;12365;43.554;1.388;2023-11-21T11:33:19;100047.59;;;14.77;68.07
24234;BME280;12365;43.554;1.388;2023-11-21T11:38:31;100047.50;;;14.74;68.13
24234;BME280;12365;43.554;1.388;2023-11-21T11:41:01;100053.84;;;14.81;67.96
24234;BME280;12365;43.554;1.388;2023-11-21T11:43:28;100045.25;;;14.85;67.97
24234;BME280;12365;43.554;1.388;2023-11-21T11:45:57;100044.63;;;14.92;67.83
24234;BME280;12365;43.554;1.388;2023-11-21T11:48:24;100043.09;;;14.99;67.64
24234;BME280;12365;43.554;1.388;2023-11-21T11:51:25;100035.53;;;15.08;67.93
24234;BME280;12365;43.554;1.388;2023-11-21T11:53:51;100039.13;;;15.11;67.46
24234;BME280;12365;43.554;1.388;2023-11-21T11:58:49;100039.25;;;15.14;67.43
24234;BME280;12365;43.554;1.388;2023-11-21T12:01:19;100039.34;;;15.17;67.41
24234;BME280;12365;43.554;1.388;2023-11-21T12:03:45;100025.47;;;15.22;67.37
24234;BME280;12365;43.554;1.388;2023-11-21T12:06:36;100021.22;;;15.25;67.40
24234;BME280;12365;43.554;1.388;2023-11-21T12:09:02;100028.25;;;15.26;67.28
24234;BME280;12365;43.554;1.388;2023-11-21T12:11:31;100026.41;;;15.24;66.94
24234;BME280;12365;43.554;1.388;2023-11-21T12:13:58;100020.31;;;15.25;67.10
24234;BME280;12365;43.554;1.388;2023-11-21T12:16:28;100019.56;;;15.29;66.88
24234;BME280;12365;43.554;1.388;2023-11-21T12:18:53;100026.56;;;15.28;66.84
24234;BME280;12365;43.554;1.388;2023-11-21T12:21:22;100014.16;;;15.24;66.65
24234;BME280;12365;43.554;1.388;2023-11-21T12:23:47;100022.09;;;15.26;66.78
24234;BME280;12365;43.554;1.388;2023-11-21T12:26:13;100017.72;;;15.26;66.83
24234;BME280;12365;43.554;1.388;2023-11-21T12:28:39;100024.63;;;15.23;66.46
24234;BME280;12365;43.554;1.388;2023-11-21T12:31:05;100025.00;;;15.08;66.73
24234;BME280;12365;43.554;1.388;2023-11-21T12:33:34;100035.94;;;14.94;66.85
24234;BME280;12365;43.554;1.388;2023-11-21T12:36:00;100042.53;;;14.82;66.76
24234;BME280;12365;43.554;1.388;2023-11-21T12:38:34;100040.41;;;14.71;67.04
24234;BME280;12365;43.554;1.388;2023-11-21T12:41:00;100028.69;;;14.62;67.12
24234;BME280;12365;43.554;1.388;2023-11-21T12:43:25;100032.00;;;14.56;66.93
24234;BME280;12365;43.554;1.388;2023-11-21T12:45:51;100025.03;;;14.58;67.14
24234;BME280;12365;43.554;1.388;2023-11-21T12:48:29;100033.06;;;14.63;67.24
24234;BME280;12365;43.554;1.388;2023-11-21T12:50:55;100028.72;;;14.63;67.15
24234;BME280;12365;43.554;1.388;2023-11-21T12:53:21;100028.00;;;14.67;67.23
24234;BME280;12365;43.554;1.388;2023-11-21T12:55:46;100029.16;;;14.76;67.37
24234;BME280;12365;43.554;1.388;2023-11-21T12:58:15;100024.22;;;14.85;67.29
24234;BME280;12365;43.554;1.388;2023-11-21T13:00:48;100025.38;;;14.93;67.37